createdAt,value
2022-08-16T00:03:51.615Z,8.7
2022-08-16T00:04:55.119Z,8.6
2022-08-16T00:06:58.898Z,7.4
2022-08-16T00:11:06.446Z,11.4
2022-08-16T00:13:13.556Z,9.4
2022-08-16T00:15:17.385Z,7.7
2022-08-16T00:17:21.093Z,9.3
2022-08-16T00:19:24.869Z,8.2
2022-08-16T00:21:28.966Z,8.8
2022-08-16T00:23:34.878Z,9.5
2022-08-16T00:26:35.476Z,8.7
2022-08-16T00:27:43.273Z,9.7
2022-08-16T00:29:47.067Z,8.4
2022-08-16T00:31:59.472Z,16.1
2022-08-16T00:33:54.610Z,8.8
2022-08-16T00:35:58.424Z,8.8
2022-08-16T00:38:02.202Z,8.3
2022-08-16T00:40:06.044Z,9.2
2022-08-16T00:42:13.062Z,12.1
2022-08-16T00:44:16.853Z,9.9
2022-08-16T00:48:30.794Z,9.2
2022-08-16T00:52:31.995Z,9.3
2022-08-16T00:54:35.774Z,8.7
2022-08-16T00:56:57.968Z,10.2
2022-08-16T00:58:46.648Z,10.6
2022-08-16T01:00:54.244Z,10.5
2022-08-16T01:01:53.992Z,9.5
2022-08-16T01:14:21.633Z,9.8
2022-08-16T01:18:40.803Z,9.4
2022-08-16T01:22:48.620Z,11.5
2022-08-16T01:24:51.599Z,10.3
2022-08-16T01:26:47.752Z,9.9
2022-08-16T01:28:51.564Z,9.5
2022-08-16T01:30:55.361Z,10.2
2022-08-16T01:33:02.430Z,10.8
2022-08-16T01:35:03.078Z,10.4
2022-08-16T01:37:06.800Z,10.5
2022-08-16T01:39:13.906Z,11
2022-08-16T01:41:19.855Z,13.5
2022-08-16T01:43:21.522Z,10.6
2022-08-16T01:45:40.841Z,11.3
2022-08-16T01:47:29.316Z,10.6
2022-08-16T01:49:43.241Z,13.2
2022-08-16T01:51:36.781Z,12.3
2022-08-16T01:53:43.884Z,11.1
2022-08-16T01:55:54.201Z,12.2
2022-08-16T01:57:53.138Z,11.7
2022-08-16T01:58:55.242Z,11.2
2022-08-16T02:00:58.898Z,10.3
2022-08-16T02:03:02.725Z,11
2022-08-16T02:05:06.596Z,10.7
2022-08-16T02:07:13.667Z,12.1
2022-08-16T02:19:59.702Z,11.8
2022-08-16T02:22:07.691Z,11.8
2022-08-16T02:46:33.671Z,11.5
2022-08-16T02:54:55.663Z,11.4
2022-08-16T02:57:16.419Z,13.1
2022-08-16T02:59:20.257Z,10.7
2022-08-16T03:04:28.909Z,13.1
2022-08-16T03:05:35.058Z,11.5
2022-08-16T03:07:38.895Z,18.3
2022-08-16T03:09:44.221Z,12.2
2022-08-16T03:11:46.563Z,11.4
2022-08-16T03:13:51.445Z,10
2022-08-16T03:15:54.260Z,11.3
2022-08-16T03:18:01.392Z,10.9
2022-08-16T03:20:05.233Z,12.2
2022-08-16T03:22:09.077Z,12.1
2022-08-16T03:28:20.611Z,14.1
2022-08-16T03:32:31.639Z,13.9
2022-08-16T03:36:39.279Z,11.5
2022-08-16T03:38:43.122Z,13
2022-08-16T03:45:02.950Z,12.1
2022-08-16T03:47:01.804Z,12.2
2022-08-16T03:49:05.650Z,15.3
2022-08-16T03:51:09.499Z,19.8
2022-08-16T03:52:13.061Z,15.6
2022-08-16T03:56:21.040Z,11.4
2022-08-16T04:00:35.936Z,17.1
2022-08-16T04:02:35.581Z,14.3
2022-08-16T04:04:39.402Z,15.3
2022-08-16T04:06:43.262Z,15.7
2022-08-16T04:08:47.124Z,12
2022-08-16T04:10:51.834Z,15.3
2022-08-16T04:12:59.433Z,16
2022-08-16T04:15:02.319Z,15.6
2022-08-16T04:17:05.771Z,16.5
2022-08-16T04:19:09.645Z,18.7
2022-08-16T04:21:13.482Z,16.9
2022-08-16T04:23:17.338Z,12.4
2022-08-16T04:25:21.202Z,14.4
2022-08-16T04:27:28.785Z,14
2022-08-16T04:29:43.736Z,18
2022-08-16T04:31:36.052Z,14.1
2022-08-16T04:33:50.843Z,14.5
2022-08-16T04:35:43.763Z,15.1
2022-08-16T04:37:47.604Z,14.1
2022-08-16T04:39:55.582Z,14.2
2022-08-16T04:41:56.839Z,12.9
2022-08-16T04:44:02.467Z,16.5
2022-08-16T04:46:06.307Z,17.4
2022-08-16T04:48:10.189Z,18.4
2022-08-16T04:49:13.743Z,17.3
2022-08-16T04:51:17.557Z,19.8
2022-08-16T04:53:21.417Z,19.4
2022-08-16T04:57:32.422Z,20
2022-08-16T05:01:57.651Z,19.4
2022-08-16T05:04:00.236Z,17.1
2022-08-16T05:05:59.245Z,18.7
2022-08-16T05:12:02.774Z,21.6
2022-08-16T05:16:12.028Z,18.4
2022-08-16T05:26:32.950Z,25.3
2022-08-16T05:30:40.630Z,31.6
2022-08-16T05:36:52.140Z,24.7
2022-08-16T05:41:03.124Z,24.4
2022-08-16T05:43:06.922Z,29.4
2022-08-16T05:45:10.775Z,25
2022-08-16T05:46:28.416Z,23.4
2022-08-16T05:48:18.178Z,21
2022-08-16T05:50:22.012Z,20.1
2022-08-16T05:52:27.915Z,21.2
2022-08-16T05:54:32.939Z,22.6
2022-08-16T05:56:36.749Z,26.2
2022-08-16T05:58:40.578Z,22.1
2022-08-16T06:00:44.371Z,21.7
2022-08-16T06:02:48.342Z,20.7
2022-08-16T06:04:51.982Z,24.8
2022-08-16T06:06:57.292Z,24
2022-08-16T06:09:02.884Z,21.9
2022-08-16T06:11:10.342Z,21.6
2022-08-16T06:13:10.475Z,24.7
2022-08-16T06:15:16.482Z,27.5
2022-08-16T06:17:18.033Z,21.5
2022-08-16T06:19:21.844Z,24.6
2022-08-16T06:21:25.602Z,19.9
2022-08-16T06:23:32.692Z,23.1
2022-08-16T06:25:39.497Z,20.5
2022-08-16T06:27:40.885Z,22.3
2022-08-16T06:29:44.024Z,20.9
2022-08-16T06:31:49.059Z,18.6
2022-08-16T06:33:51.796Z,21.5
2022-08-16T06:35:59.514Z,20.7
2022-08-16T06:40:12.867Z,18.7
2022-08-16T06:42:10.021Z,22.6
2022-08-16T06:44:32.485Z,20
2022-08-16T06:46:36.281Z,24.7
2022-08-16T06:48:42.841Z,19.4
2022-08-16T06:50:47.105Z,22.5
2022-08-16T06:53:00.474Z,20.9
2022-08-16T06:54:54.659Z,24.1
2022-08-16T06:56:58.405Z,23.3
2022-08-16T06:59:02.171Z,20.3
2022-08-16T07:01:09.755Z,22.7
2022-08-16T07:05:16.755Z,20.8
2022-08-16T07:07:22.144Z,22.9
2022-08-16T07:09:25.879Z,21.8
2022-08-16T07:11:47.231Z,20.1
2022-08-16T07:14:00.182Z,21.9
2022-08-16T07:23:56.824Z,18.9
2022-08-16T07:28:02.769Z,16.6
2022-08-16T07:32:09.983Z,16.9
2022-08-16T07:34:16.826Z,17.8
2022-08-16T07:38:33.751Z,17.2
2022-08-16T07:41:31.014Z,17.4
2022-08-16T07:43:29.028Z,17.4
2022-08-16T08:02:53.089Z,17.4
2022-08-16T08:22:25.408Z,17.4
2022-08-16T19:18:27.307Z,26.3
2022-08-16T19:20:52.187Z,24.3
2022-08-16T19:23:06.290Z,23
2022-08-16T19:24:59.658Z,25.9
2022-08-16T19:27:06.714Z,28.3
2022-08-16T19:29:10.450Z,23.2
2022-08-16T19:31:14.173Z,25.3
2022-08-16T19:33:17.922Z,23.4
2022-08-16T19:35:21.644Z,24.2
2022-08-16T19:39:32.488Z,28.7
2022-08-16T19:41:36.139Z,30.1
2022-08-16T19:43:39.895Z,28.7
2022-08-16T19:47:47.379Z,29.6
2022-08-16T19:49:51.100Z,35.2
2022-08-16T19:51:54.827Z,29.4
2022-08-16T19:53:58.464Z,29.1
2022-08-16T19:56:05.540Z,31.5
2022-08-16T19:58:09.262Z,33.2
2022-08-16T20:00:13.014Z,32.6
2022-08-16T20:02:35.456Z,34.5
2022-08-16T20:04:20.501Z,33.6
2022-08-16T20:06:35.828Z,30.3
2022-08-16T20:08:27.987Z,35.5
2022-08-16T20:10:35.082Z,43
2022-08-16T20:12:38.804Z,32.8
2022-08-16T20:14:42.562Z,30.8
2022-08-16T20:15:46.094Z,32.5
2022-08-16T20:21:57.362Z,28.5
2022-08-16T20:24:30.301Z,32.9
2022-08-16T20:26:08.146Z,36.2
2022-08-16T20:28:11.883Z,33.4
2022-08-16T20:30:15.657Z,35.7
2022-08-16T20:32:22.701Z,31
2022-08-16T20:34:23.168Z,28.7
2022-08-16T20:36:26.920Z,33.5
2022-08-16T20:42:41.496Z,29.4
2022-08-16T20:46:48.990Z,31.2
2022-08-16T20:48:52.922Z,28.9
2022-08-16T20:50:56.512Z,33.8
2022-08-16T20:53:03.574Z,33
2022-08-16T20:55:07.356Z,34.4
2022-08-16T20:57:11.106Z,32.4
2022-08-16T20:59:14.876Z,33.6
2022-08-16T21:03:22.401Z,33.6
2022-08-16T21:05:30.968Z,30.9
2022-08-16T21:07:33.291Z,37.2
2022-08-16T21:09:37.065Z,35.1
2022-08-16T21:12:44.345Z,36.9
2022-08-16T21:14:48.095Z,33
2022-08-16T21:16:51.904Z,34
2022-08-16T21:23:06.474Z,38
2022-08-16T21:25:10.254Z,37.1
2022-08-16T21:31:21.587Z,39.1
2022-08-16T21:33:25.340Z,34.4
2022-08-16T21:35:32.414Z,36.3
2022-08-16T21:37:36.203Z,34
2022-08-16T21:39:40.070Z,38.6
2022-08-16T21:41:43.761Z,36.6
2022-08-16T21:43:47.542Z,36.1
2022-08-16T21:45:53.904Z,37
2022-08-16T21:47:55.100Z,47.4
2022-08-16T21:50:02.654Z,46.9
2022-08-16T21:52:05.979Z,38.3
2022-08-16T21:54:09.751Z,38.1
2022-08-16T21:56:16.695Z,45.4
2022-08-16T21:58:17.316Z,40.4
2022-08-16T22:00:21.147Z,35.8
2022-08-16T22:02:24.899Z,37.7
2022-08-16T22:04:37.702Z,40.9
2022-08-16T22:06:35.805Z,41.1
2022-08-16T22:08:49.345Z,42.3
2022-08-16T22:09:43.099Z,37.6
2022-08-16T22:11:46.884Z,40.2
2022-08-16T22:13:51.285Z,39.6
2022-08-16T22:15:54.443Z,39.3
2022-08-16T22:18:01.541Z,37.8
2022-08-16T22:20:05.321Z,39.1
2022-08-16T22:22:09.109Z,34.5
2022-08-16T22:24:12.899Z,36.8
2022-08-16T22:26:16.683Z,36.2
2022-08-16T22:28:20.473Z,45.6
2022-08-16T22:30:24.254Z,33.3
2022-08-16T22:32:31.360Z,40.5
2022-08-16T22:34:35.141Z,39.1
2022-08-16T22:36:38.908Z,38.3
2022-08-16T22:38:56.573Z,34.7
2022-08-16T22:40:46.539Z,33.3
2022-08-16T22:42:50.499Z,37.3
2022-08-16T22:44:54.120Z,33.7
2022-08-16T22:47:01.184Z,40.1
2022-08-16T22:49:05.002Z,35.4
2022-08-16T22:51:08.787Z,37.7
2022-08-16T22:53:12.560Z,37
2022-08-16T22:55:16.521Z,37.5
2022-08-16T22:57:20.158Z,36.2
2022-08-16T22:59:23.948Z,35
2022-08-16T23:01:31.107Z,40.8
2022-08-16T23:03:34.823Z,38.2
2022-08-16T23:08:00.936Z,37.9
2022-08-16T23:10:04.748Z,33.3
2022-08-16T23:12:08.557Z,32.2
2022-08-16T23:14:15.644Z,39.7
2022-08-16T23:16:19.429Z,37.9
2022-08-16T23:18:26.835Z,36.5
2022-08-16T23:20:27.000Z,36.5
2022-08-16T23:22:30.810Z,32.8
2022-08-16T23:26:47.692Z,32.8
2022-08-16T23:30:49.273Z,36.7
2022-08-16T23:32:53.049Z,42
2022-08-16T23:34:56.848Z,42.7
2022-08-16T23:37:00.659Z,40.1
2022-08-16T23:39:04.501Z,41.1
2022-08-16T23:41:09.096Z,40.2
2022-08-16T23:43:15.403Z,42.2
2022-08-16T23:47:23.004Z,37.7
2022-08-16T23:49:55.847Z,36.7
2022-08-16T23:51:30.622Z,41.6
2022-08-16T23:53:34.413Z,36.7
2022-08-16T23:55:38.227Z,39.2
2022-08-16T23:57:45.404Z,39.6
2022-08-16T23:59:53.769Z,38.2
